createdAt,value
2022-08-22T00:00:26.143Z,91.46
2022-08-22T00:01:26.150Z,91.05
2022-08-22T00:02:26.726Z,91.66
2022-08-22T00:02:44.327Z,84.59
2022-08-22T00:02:53.606Z,79.27
2022-08-22T00:02:55.262Z,86.71
2022-08-22T00:02:59.714Z,79.34
2022-08-22T00:03:00.473Z,77.44
2022-08-22T00:03:00.887Z,84.59
2022-08-22T00:03:01.690Z,85.90
2022-08-22T00:03:01.923Z,79.16
2022-08-22T00:03:04.187Z,81.80
2022-08-22T00:03:12.644Z,84.79
2022-08-22T00:03:26.122Z,91.35
2022-08-22T00:04:26.118Z,91.86
2022-08-22T00:05:26.115Z,92.36
2022-08-22T00:06:26.132Z,92.41
2022-08-22T00:07:26.112Z,91.90
2022-08-22T00:08:26.104Z,92.36
2022-08-22T00:09:26.103Z,92.67
2022-08-22T00:10:26.097Z,93.02
2022-08-22T00:11:26.092Z,93.73
2022-08-22T00:12:26.096Z,93.32
2022-08-22T00:13:26.085Z,93.83
2022-08-22T00:14:26.081Z,93.73
2022-08-22T00:15:43.755Z,93.77
2022-08-22T00:16:26.076Z,93.32
2022-08-22T00:17:26.069Z,93.83
2022-08-22T00:18:26.075Z,93.73
2022-08-22T00:19:33.223Z,93.77
2022-08-22T00:21:30.076Z,94.18
2022-08-22T00:22:30.057Z,94.23
2022-08-22T00:24:34.076Z,93.97
2022-08-22T00:25:34.066Z,93.57
2022-08-22T00:27:27.005Z,93.77
2022-08-22T00:28:26.984Z,93.67
2022-08-22T00:30:19.894Z,93.26
2022-08-22T00:31:19.886Z,93.26
2022-08-22T00:33:24.456Z,93.77
2022-08-22T00:34:24.428Z,93.77
2022-08-22T00:35:24.423Z,94.07
2022-08-22T00:36:24.424Z,94.68
2022-08-22T00:37:24.453Z,94.93
2022-08-22T00:38:24.412Z,95.13
2022-08-22T00:39:24.413Z,95.13
2022-08-22T00:40:24.407Z,95.74
2022-08-22T00:41:24.401Z,95.64
2022-08-22T00:42:29.477Z,95.43
2022-08-22T00:43:24.393Z,95.28
2022-08-22T00:44:24.395Z,95.38
2022-08-22T00:45:24.389Z,95.54
2022-08-22T00:46:24.384Z,95.34
2022-08-22T00:47:24.377Z,95.13
2022-08-22T00:48:24.374Z,95.34
2022-08-22T00:49:24.407Z,95.54
2022-08-22T00:50:24.367Z,94.73
2022-08-22T00:51:24.366Z,95.03
2022-08-22T00:52:24.356Z,94.57
2022-08-22T00:53:24.353Z,95.28
2022-08-22T00:54:24.350Z,94.87
2022-08-22T00:55:24.345Z,95.28
2022-08-22T00:56:24.345Z,95.07
2022-08-22T00:57:24.335Z,95.07
2022-08-22T00:58:24.332Z,95.38
2022-08-22T00:59:24.327Z,95.58
2022-08-22T01:00:24.357Z,95.28
2022-08-22T01:01:24.361Z,95.58
2022-08-22T01:02:24.319Z,95.64
2022-08-22T01:03:24.312Z,95.03
2022-08-22T01:04:24.306Z,95.28
2022-08-22T01:05:24.306Z,95.38
2022-08-22T01:06:24.298Z,95.38
2022-08-22T01:07:24.291Z,95.79
2022-08-22T01:08:24.290Z,95.89
2022-08-22T01:09:24.284Z,95.48
2022-08-22T01:10:24.277Z,95.38
2022-08-22T01:11:24.275Z,95.07
2022-08-22T01:12:24.273Z,95.07
2022-08-22T01:13:24.268Z,95.18
2022-08-22T01:14:35.128Z,95.07
2022-08-22T01:15:24.260Z,95.28
2022-08-22T01:16:24.255Z,95.28
2022-08-22T01:17:24.249Z,95.58
2022-08-22T01:18:24.249Z,95.07
2022-08-22T01:19:24.239Z,95.63
2022-08-22T01:20:24.236Z,95.42
2022-08-22T01:21:24.515Z,95.22
2022-08-22T01:22:24.229Z,95.53
2022-08-22T01:23:24.220Z,95.12
2022-08-22T01:24:24.287Z,95.53
2022-08-22T01:25:26.034Z,95.28
2022-08-22T01:26:24.212Z,95.12
2022-08-22T01:27:24.207Z,94.92
2022-08-22T01:28:24.203Z,95.83
2022-08-22T01:29:27.862Z,95.12
2022-08-22T01:30:24.195Z,95.53
2022-08-22T01:31:24.189Z,95.42
2022-08-22T01:32:24.188Z,95.42
2022-08-22T01:33:24.182Z,95.63
2022-08-22T01:34:24.177Z,95.87
2022-08-22T01:35:24.173Z,96.14
2022-08-22T01:36:24.169Z,95.87
2022-08-22T01:37:24.164Z,96.14
2022-08-22T01:38:24.158Z,95.83
2022-08-22T01:39:24.154Z,96.08
2022-08-22T01:40:24.167Z,96.34
2022-08-22T01:41:24.147Z,96.18
2022-08-22T01:42:24.142Z,96.28
2022-08-22T01:43:55.499Z,96.69
2022-08-22T01:44:24.135Z,96.38
2022-08-22T01:45:24.132Z,96.48
2022-08-22T01:46:24.124Z,96.59
2022-08-22T01:47:24.117Z,96.38
2022-08-22T01:48:24.114Z,96.08
2022-08-22T01:49:24.109Z,96.18
2022-08-22T01:50:24.106Z,96.79
2022-08-22T01:51:24.101Z,97.60
2022-08-22T01:52:24.096Z,97.50
2022-08-22T01:53:24.095Z,97.15
2022-08-22T01:54:24.091Z,97.30
2022-08-22T01:55:24.078Z,97.66
2022-08-22T01:56:24.081Z,96.48
2022-08-22T01:57:24.073Z,96.54
2022-08-22T01:58:24.071Z,96.44
2022-08-22T01:59:25.379Z,96.44
2022-08-22T02:00:35.277Z,96.69
2022-08-22T02:01:24.113Z,96.18
2022-08-22T02:02:24.052Z,96.18
2022-08-22T02:03:24.051Z,96.75
2022-08-22T02:04:24.046Z,96.59
2022-08-22T02:05:24.042Z,96.69
2022-08-22T02:06:24.034Z,97.20
2022-08-22T02:07:31.868Z,97.50
2022-08-22T02:08:24.026Z,97.30
2022-08-22T02:09:24.022Z,97.30
2022-08-22T02:10:24.015Z,97.40
2022-08-22T02:11:24.010Z,97.50
2022-08-22T02:12:24.008Z,96.99
2022-08-22T02:13:24.004Z,97.09
2022-08-22T02:14:23.997Z,97.20
2022-08-22T02:15:23.995Z,96.99
2022-08-22T02:16:23.990Z,96.99
2022-08-22T02:17:23.983Z,97.30
2022-08-22T02:18:23.977Z,97.20
2022-08-22T02:19:23.974Z,97.30
2022-08-22T02:20:23.972Z,97.20
2022-08-22T02:21:23.966Z,97.50
2022-08-22T02:22:23.961Z,97.40
2022-08-22T02:23:23.955Z,97.30
2022-08-22T02:24:23.949Z,96.94
2022-08-22T02:25:23.950Z,97.09
2022-08-22T02:26:23.943Z,97.44
2022-08-22T02:27:23.937Z,97.50
2022-08-22T02:28:23.935Z,97.34
2022-08-22T02:29:23.928Z,97.24
2022-08-22T02:30:23.928Z,97.09
2022-08-22T02:31:23.926Z,97.50
2022-08-22T02:32:23.915Z,97.44
2022-08-22T02:33:23.909Z,97.55
2022-08-22T02:34:23.907Z,97.55
2022-08-22T02:35:23.901Z,97.65
2022-08-22T02:36:23.895Z,97.44
2022-08-22T02:37:23.892Z,97.55
2022-08-22T02:38:23.890Z,97.44
2022-08-22T02:39:23.882Z,97.34
2022-08-22T02:40:23.891Z,97.44
2022-08-22T02:41:23.875Z,97.34
2022-08-22T02:42:23.865Z,97.39
2022-08-22T02:43:23.861Z,97.60
2022-08-22T02:44:23.857Z,97.69
2022-08-22T02:45:23.855Z,97.44
2022-08-22T02:46:23.850Z,97.80
2022-08-22T02:47:23.845Z,97.69
2022-08-22T02:48:23.838Z,97.89
2022-08-22T02:49:23.833Z,97.69
2022-08-22T02:50:23.829Z,97.69
2022-08-22T02:51:23.825Z,97.60
2022-08-22T02:52:23.823Z,97.39
2022-08-22T02:53:23.814Z,97.49
2022-08-22T02:54:23.813Z,97.34
2022-08-22T02:55:23.808Z,97.60
2022-08-22T02:56:23.801Z,97.80
2022-08-22T02:57:23.798Z,97.80
2022-08-22T02:58:23.790Z,97.60
2022-08-22T02:59:23.785Z,97.69
2022-08-22T03:00:30.893Z,98.00
2022-08-22T03:01:23.802Z,97.69
2022-08-22T03:02:23.773Z,97.60
2022-08-22T03:03:23.772Z,97.60
2022-08-22T03:04:23.766Z,97.60
2022-08-22T03:05:23.766Z,98.00
2022-08-22T03:06:23.774Z,98.00
2022-08-22T03:07:23.747Z,98.30
2022-08-22T03:08:23.751Z,98.55
2022-08-22T03:09:23.743Z,99.06
2022-08-22T03:10:23.731Z,99.22
2022-08-22T03:11:23.730Z,99.02
2022-08-22T03:12:23.726Z,99.37
2022-08-22T03:13:23.720Z,99.22
2022-08-22T03:14:23.714Z,99.32
2022-08-22T03:15:23.708Z,99.42
2022-08-22T03:16:23.704Z,99.32
2022-08-22T03:17:23.700Z,99.11
2022-08-22T03:18:23.696Z,99.32
2022-08-22T03:19:23.691Z,99.17
2022-08-22T03:20:23.689Z,99.32
2022-08-22T03:21:23.681Z,99.22
2022-08-22T03:22:23.675Z,99.17
2022-08-22T03:23:23.671Z,98.91
2022-08-22T03:24:23.666Z,99.27
2022-08-22T03:25:23.661Z,99.27
2022-08-22T03:26:23.654Z,99.07
2022-08-22T03:27:32.542Z,99.07
2022-08-22T03:28:23.645Z,98.77
2022-08-22T03:29:23.643Z,99.07
2022-08-22T03:30:23.634Z,98.86
2022-08-22T03:31:23.632Z,98.16
2022-08-22T03:32:23.626Z,98.05
2022-08-22T03:33:23.622Z,97.75
2022-08-22T03:34:23.614Z,97.96
2022-08-22T03:35:23.614Z,97.75
2022-08-22T03:36:23.607Z,97.65
2022-08-22T03:37:23.602Z,97.65
2022-08-22T03:38:23.601Z,97.44
2022-08-22T03:39:23.592Z,97.44
2022-08-22T03:40:23.657Z,97.40
2022-08-22T03:41:23.582Z,97.55
2022-08-22T03:42:23.577Z,97.34
2022-08-22T03:43:23.573Z,97.55
2022-08-22T03:44:23.567Z,97.44
2022-08-22T03:45:23.563Z,97.44
2022-08-22T03:46:23.559Z,97.75
2022-08-22T03:47:23.550Z,97.75
2022-08-22T03:48:23.546Z,97.55
2022-08-22T03:49:23.544Z,97.65
2022-08-22T03:50:23.537Z,97.55
2022-08-22T03:51:23.534Z,97.75
2022-08-22T03:52:23.535Z,97.85
2022-08-22T03:53:23.523Z,97.75
2022-08-22T03:54:23.516Z,97.65
2022-08-22T03:55:23.513Z,97.55
2022-08-22T03:56:23.507Z,97.75
2022-08-22T03:57:23.502Z,97.55
2022-08-22T03:58:27.943Z,97.60
2022-08-22T03:59:23.495Z,97.29
2022-08-22T04:00:23.488Z,97.39
2022-08-22T04:01:23.482Z,97.55
2022-08-22T04:02:43.619Z,97.60
2022-08-22T04:03:23.476Z,97.69
2022-08-22T04:04:23.469Z,97.65
2022-08-22T04:05:23.464Z,97.89
2022-08-22T04:06:23.460Z,97.80
2022-08-22T04:07:31.644Z,97.60
2022-08-22T04:08:26.264Z,97.60
2022-08-22T04:09:23.446Z,97.49
2022-08-22T04:10:23.439Z,97.69
2022-08-22T04:11:23.433Z,97.69
2022-08-22T04:12:23.430Z,97.65
2022-08-22T04:13:24.913Z,97.69
2022-08-22T04:14:23.420Z,97.55
2022-08-22T04:15:23.415Z,97.65
2022-08-22T04:16:23.415Z,97.44
2022-08-22T04:17:23.408Z,97.69
2022-08-22T04:18:23.478Z,97.49
2022-08-22T04:19:23.397Z,97.55
2022-08-22T04:20:23.391Z,97.34
2022-08-22T04:21:23.386Z,97.29
2022-08-22T04:22:23.379Z,97.24
2022-08-22T04:23:23.374Z,97.04
2022-08-22T04:24:23.372Z,97.14
2022-08-22T04:25:23.372Z,97.04
2022-08-22T04:26:23.361Z,97.34
2022-08-22T04:27:23.358Z,97.55
2022-08-22T04:28:23.353Z,97.14
2022-08-22T04:29:23.353Z,96.53
2022-08-22T04:30:23.350Z,96.33
2022-08-22T04:31:23.338Z,96.63
2022-08-22T04:32:23.329Z,96.43
2022-08-22T04:33:23.327Z,96.63
2022-08-22T04:34:23.319Z,97.24
2022-08-22T04:35:23.314Z,97.55
2022-08-22T04:36:23.314Z,97.44
2022-08-22T04:37:23.308Z,97.44
2022-08-22T04:38:23.302Z,97.75
2022-08-22T04:39:23.297Z,96.59
2022-08-22T04:40:23.320Z,96.38
2022-08-22T04:41:23.288Z,96.38
2022-08-22T04:42:33.745Z,95.98
2022-08-22T04:43:23.348Z,96.48
2022-08-22T04:44:23.278Z,96.38
2022-08-22T04:45:23.268Z,96.38
2022-08-22T04:46:23.261Z,96.28
2022-08-22T04:47:23.258Z,96.38
2022-08-22T04:48:23.254Z,96.48
2022-08-22T04:49:23.251Z,96.38
2022-08-22T04:50:23.247Z,96.18
2022-08-22T04:51:23.239Z,96.44
2022-08-22T04:52:23.235Z,96.34
2022-08-22T04:53:23.231Z,96.54
2022-08-22T04:54:23.225Z,96.34
2022-08-22T04:55:23.222Z,95.94
2022-08-22T04:56:23.221Z,95.83
2022-08-22T04:57:23.211Z,95.83
2022-08-22T04:58:23.206Z,95.38
2022-08-22T04:59:23.200Z,95.38
2022-08-22T05:00:23.193Z,94.98
2022-08-22T05:01:23.278Z,95.28
2022-08-22T05:02:23.183Z,95.89
2022-08-22T05:03:23.190Z,94.98
2022-08-22T05:04:23.177Z,95.07
2022-08-22T05:05:23.172Z,95.07
2022-08-22T05:06:23.168Z,94.93
2022-08-22T05:07:23.161Z,95.23
2022-08-22T05:08:23.165Z,95.13
2022-08-22T05:09:23.154Z,95.03
2022-08-22T05:10:23.149Z,94.73
2022-08-22T05:11:23.144Z,94.42
2022-08-22T05:12:23.139Z,94.48
2022-08-22T05:13:23.135Z,94.48
2022-08-22T05:14:23.131Z,94.38
2022-08-22T05:15:23.535Z,93.87
2022-08-22T05:16:23.126Z,93.46
2022-08-22T05:17:23.114Z,93.77
2022-08-22T05:18:23.112Z,93.46
2022-08-22T05:19:29.671Z,93.06
2022-08-22T05:20:23.104Z,92.86
2022-08-22T05:21:23.096Z,92.55
2022-08-22T05:22:23.091Z,92.21
2022-08-22T05:23:23.099Z,92.35
2022-08-22T05:24:23.087Z,92.61
2022-08-22T05:25:23.080Z,92.31
2022-08-22T05:26:23.077Z,92.00
2022-08-22T05:27:23.069Z,92.31
2022-08-22T05:28:23.067Z,92.31
2022-08-22T05:29:23.064Z,92.00
2022-08-22T05:30:23.058Z,92.31
2022-08-22T05:31:23.982Z,92.21
2022-08-22T05:32:23.049Z,92.31
2022-08-22T05:33:23.045Z,91.90
2022-08-22T05:34:23.037Z,91.39
2022-08-22T05:35:23.031Z,91.80
2022-08-22T05:36:23.029Z,91.66
2022-08-22T05:37:23.028Z,91.25
2022-08-22T05:38:23.020Z,90.84
2022-08-22T05:39:25.220Z,90.75
2022-08-22T05:40:23.049Z,90.34
2022-08-22T05:41:23.008Z,90.20
2022-08-22T05:42:23.004Z,89.99
2022-08-22T05:43:22.997Z,89.99
2022-08-22T05:44:22.993Z,90.09
2022-08-22T05:45:22.991Z,90.09
2022-08-22T05:46:26.814Z,89.65
2022-08-22T05:47:22.990Z,89.65
2022-08-22T05:48:22.979Z,89.30
2022-08-22T05:49:22.971Z,88.90
2022-08-22T05:50:22.968Z,88.75
2022-08-22T05:51:22.963Z,87.70
2022-08-22T05:52:22.961Z,87.19
2022-08-22T05:53:22.959Z,86.75
2022-08-22T05:54:33.760Z,86.41
2022-08-22T05:55:22.949Z,85.66
2022-08-22T05:56:22.949Z,84.21
2022-08-22T05:57:22.942Z,83.16
2022-08-22T05:58:22.937Z,81.81
2022-08-22T05:59:22.935Z,81.30
2022-08-22T06:00:22.931Z,80.46
2022-08-22T06:01:22.956Z,80.63
2022-08-22T06:02:22.925Z,78.78
2022-08-22T06:03:22.968Z,78.58
2022-08-22T06:04:22.914Z,77.57
2022-08-22T06:05:22.914Z,78.94
2022-08-22T06:06:22.910Z,78.60
2022-08-22T06:07:22.905Z,77.86
2022-08-22T06:08:22.901Z,77.56
2022-08-22T06:09:22.901Z,77.02
2022-08-22T06:10:22.900Z,76.28
2022-08-22T06:11:22.893Z,75.74
2022-08-22T06:12:22.892Z,73.64
2022-08-22T06:13:24.740Z,73.30
2022-08-22T06:14:24.801Z,72.86
2022-08-22T06:15:22.886Z,72.13
2022-08-22T06:16:22.877Z,71.89
2022-08-22T06:17:22.876Z,71.56
2022-08-22T06:18:22.878Z,69.46
2022-08-22T06:19:22.870Z,69.12
2022-08-22T06:20:30.033Z,69.32
2022-08-22T06:22:26.910Z,67.46
2022-08-22T06:23:26.895Z,66.69
2022-08-22T06:25:30.912Z,66.56
2022-08-22T06:26:30.899Z,67.86
2022-08-22T06:28:34.925Z,66.06
2022-08-22T06:29:34.915Z,66.06
2022-08-22T06:31:28.078Z,65.56
2022-08-22T06:32:34.160Z,65.99
2022-08-22T06:33:28.038Z,66.19
2022-08-22T06:34:28.039Z,64.69
2022-08-22T06:35:28.034Z,64.89
2022-08-22T06:36:28.033Z,65.49
2022-08-22T06:37:28.032Z,66.39
2022-08-22T06:38:28.047Z,66.16
2022-08-22T06:39:28.027Z,66.06
2022-08-22T06:40:28.030Z,66.06
2022-08-22T06:41:28.025Z,65.76
2022-08-22T06:42:28.026Z,65.93
2022-08-22T06:43:28.022Z,65.93
2022-08-22T06:44:28.021Z,64.83
2022-08-22T06:45:28.019Z,64.86
2022-08-22T06:46:28.031Z,65.66
2022-08-22T06:47:28.015Z,65.96
2022-08-22T06:48:28.013Z,66.19
2022-08-22T06:49:28.013Z,66.06
2022-08-22T06:50:28.010Z,65.39
2022-08-22T06:51:28.011Z,65.99
2022-08-22T06:52:28.010Z,66.99
2022-08-22T06:53:28.059Z,66.09
2022-08-22T06:54:32.512Z,65.96
2022-08-22T06:55:28.007Z,67.06
2022-08-22T06:56:28.006Z,67.03
2022-08-22T06:57:28.004Z,65.30
2022-08-22T06:58:31.011Z,63.20
2022-08-22T06:59:28.000Z,62.53
2022-08-22T07:00:27.999Z,63.93
2022-08-22T07:01:28.070Z,64.10
2022-08-22T07:02:28.013Z,63.93
2022-08-22T07:03:27.997Z,64.03
2022-08-22T07:04:27.997Z,63.80
2022-08-22T07:05:27.997Z,63.20
2022-08-22T07:06:27.995Z,63.50
2022-08-22T07:07:27.993Z,63.90
2022-08-22T07:08:27.992Z,63.20
2022-08-22T07:09:27.995Z,61.63
2022-08-22T07:10:27.991Z,62.63
2022-08-22T07:11:27.990Z,63.83
2022-08-22T07:12:27.989Z,64.03
2022-08-22T07:13:27.985Z,63.80
2022-08-22T07:14:27.989Z,62.97
2022-08-22T07:15:27.983Z,62.48
2022-08-22T07:16:27.985Z,63.57
2022-08-22T07:17:27.985Z,63.94
2022-08-22T07:18:27.985Z,63.41
2022-08-22T07:19:27.983Z,61.58
2022-08-22T07:20:28.023Z,62.85
2022-08-22T07:21:27.978Z,60.86
2022-08-22T07:22:27.981Z,59.66
2022-08-22T07:23:27.989Z,59.89
2022-08-22T07:24:27.983Z,60.19
2022-08-22T07:25:27.976Z,61.06
2022-08-22T07:26:27.982Z,59.86
2022-08-22T07:27:27.983Z,60.73
2022-08-22T07:28:36.886Z,60.50
2022-08-22T07:29:27.978Z,59.31
2022-08-22T07:30:28.587Z,58.22
2022-08-22T07:31:27.981Z,59.01
2022-08-22T07:32:27.979Z,58.81
2022-08-22T07:33:27.992Z,58.41
2022-08-22T07:34:27.985Z,58.01
2022-08-22T07:35:27.979Z,57.99
2022-08-22T07:36:31.635Z,56.89
2022-08-22T07:37:27.979Z,56.99
2022-08-22T07:38:27.981Z,58.81
2022-08-22T07:39:27.986Z,57.69
2022-08-22T07:40:27.979Z,57.49
2022-08-22T07:41:27.980Z,58.11
2022-08-22T07:42:30.302Z,58.71
2022-08-22T07:43:27.980Z,58.74
2022-08-22T07:44:27.984Z,58.74
2022-08-22T07:45:27.982Z,59.14
2022-08-22T07:46:27.984Z,57.84
2022-08-22T07:47:27.980Z,59.94
2022-08-22T07:48:27.984Z,60.24
2022-08-22T07:49:27.984Z,55.31
2022-08-22T07:50:27.985Z,58.80
2022-08-22T07:51:27.982Z,60.09
2022-08-22T07:52:27.985Z,60.69
2022-08-22T07:53:27.982Z,61.79
2022-08-22T07:54:27.987Z,61.52
2022-08-22T07:55:27.977Z,61.49
2022-08-22T07:56:27.981Z,60.29
2022-08-22T07:57:27.987Z,61.02
2022-08-22T07:58:27.984Z,61.02
2022-08-22T07:59:27.993Z,61.61
2022-08-22T08:00:28.007Z,61.22
2022-08-22T08:01:28.022Z,59.95
2022-08-22T08:02:27.984Z,59.95
2022-08-22T08:03:27.988Z,61.55
2022-08-22T08:04:28.020Z,61.65
2022-08-22T08:05:27.983Z,62.15
2022-08-22T08:06:27.998Z,61.41
2022-08-22T08:07:28.001Z,60.85
2022-08-22T08:08:28.003Z,61.94
2022-08-22T08:09:27.987Z,61.35
2022-08-22T08:10:28.006Z,61.41
2022-08-22T08:11:27.987Z,61.55
2022-08-22T08:12:27.982Z,61.05
2022-08-22T08:13:27.991Z,61.98
2022-08-22T08:14:27.989Z,61.77
2022-08-22T08:15:27.987Z,63.94
2022-08-22T08:16:27.982Z,63.64
2022-08-22T08:17:32.022Z,63.61
2022-08-22T08:18:27.982Z,61.41
2022-08-22T08:19:27.987Z,62.48
2022-08-22T08:20:27.988Z,60.99
2022-08-22T08:21:27.992Z,60.29
2022-08-22T08:22:27.984Z,59.79
2022-08-22T08:23:27.980Z,60.22
2022-08-22T08:24:27.996Z,61.39
2022-08-22T08:25:27.987Z,60.32
2022-08-22T08:26:27.986Z,58.83
2022-08-22T08:27:27.986Z,58.75
2022-08-22T08:28:27.984Z,59.88
2022-08-22T08:29:27.985Z,60.88
2022-08-22T08:30:27.986Z,61.87
2022-08-22T08:31:27.985Z,62.15
2022-08-22T08:32:27.987Z,63.51
2022-08-22T08:33:27.986Z,59.72
2022-08-22T08:34:27.987Z,60.22
2022-08-22T08:35:27.985Z,59.12
2022-08-22T08:36:27.986Z,59.35
2022-08-22T08:37:27.985Z,60.17
2022-08-22T08:38:27.983Z,58.38
2022-08-22T08:39:35.028Z,58.71
2022-08-22T08:40:27.989Z,58.01
2022-08-22T08:41:27.985Z,58.51
2022-08-22T08:42:27.984Z,57.51
2022-08-22T08:43:27.988Z,58.31
2022-08-22T08:44:27.982Z,57.71
2022-08-22T08:45:28.939Z,57.88
2022-08-22T08:46:28.029Z,57.98
2022-08-22T08:47:27.988Z,58.08
2022-08-22T08:48:27.999Z,58.85
2022-08-22T08:49:27.989Z,58.83
2022-08-22T08:50:27.990Z,57.93
2022-08-22T08:51:27.985Z,57.20
2022-08-22T08:52:27.989Z,55.13
2022-08-22T08:53:27.990Z,55.09
2022-08-22T08:54:27.988Z,54.89
2022-08-22T08:55:27.989Z,55.09
2022-08-22T08:56:27.989Z,54.57
2022-08-22T08:57:27.986Z,55.16
2022-08-22T08:58:28.005Z,53.96
2022-08-22T08:59:27.992Z,54.27
2022-08-22T09:00:29.140Z,54.86
2022-08-22T09:01:28.615Z,54.96
2022-08-22T09:02:27.989Z,53.77
2022-08-22T09:03:31.019Z,53.47
2022-08-22T09:04:27.986Z,52.57
2022-08-22T09:05:27.983Z,53.89
2022-08-22T09:06:27.988Z,53.09
2022-08-22T09:07:27.988Z,53.49
2022-08-22T09:08:27.989Z,53.81
2022-08-22T09:09:27.991Z,54.59
2022-08-22T09:10:29.430Z,54.39
2022-08-22T09:12:27.990Z,55.96
2022-08-22T09:13:28.171Z,55.13
2022-08-22T09:14:27.987Z,53.84
2022-08-22T09:15:27.989Z,53.54
2022-08-22T09:16:27.993Z,53.64
2022-08-22T09:17:27.992Z,52.57
2022-08-22T09:18:27.991Z,54.64
2022-08-22T09:19:28.000Z,52.76
2022-08-22T09:20:27.991Z,53.36
2022-08-22T09:21:31.486Z,54.96
2022-08-22T09:22:27.996Z,53.77
2022-08-22T09:23:28.000Z,54.14
2022-08-22T09:24:27.988Z,53.86
2022-08-22T09:26:27.992Z,53.31
2022-08-22T09:27:28.000Z,52.92
2022-08-22T09:28:28.313Z,53.61
2022-08-22T09:29:28.991Z,54.98
2022-08-22T09:30:28.940Z,53.59
2022-08-22T09:31:44.900Z,50.70
2022-08-22T09:32:27.993Z,51.47
2022-08-22T09:33:28.421Z,51.89
2022-08-22T09:34:27.992Z,51.59
2022-08-22T09:35:27.998Z,52.49
2022-08-22T09:36:28.553Z,52.22
2022-08-22T09:37:27.995Z,53.64
2022-08-22T09:38:27.995Z,53.52
2022-08-22T09:39:27.998Z,54.71
2022-08-22T09:40:15.395Z,54.96
2022-08-22T09:40:15.556Z,54.34
2022-08-22T09:41:27.996Z,54.19
2022-08-22T09:42:27.997Z,53.29
2022-08-22T09:43:27.997Z,53.66
2022-08-22T09:44:28.007Z,52.37
2022-08-22T09:45:27.998Z,52.39
2022-08-22T09:46:31.443Z,53.84
2022-08-22T09:47:27.999Z,54.64
2022-08-22T09:48:28.001Z,54.74
2022-08-22T09:49:28.003Z,55.11
2022-08-22T09:50:29.375Z,54.19
2022-08-22T09:51:32.372Z,53.76
2022-08-22T09:52:33.953Z,54.86
2022-08-22T09:53:28.004Z,53.94
2022-08-22T09:54:31.015Z,51.84
2022-08-22T09:55:35.154Z,52.94
2022-08-22T09:56:29.065Z,52.54
2022-08-22T09:57:28.003Z,51.07
2022-08-22T09:58:28.017Z,51.12
2022-08-22T09:59:28.008Z,51.75
2022-08-22T10:00:28.010Z,52.14
2022-08-22T10:01:32.780Z,52.92
2022-08-22T10:02:28.015Z,52.79
2022-08-22T10:03:28.010Z,52.72
2022-08-22T10:04:28.011Z,53.22
2022-08-22T10:05:35.198Z,53.41
2022-08-22T10:06:28.013Z,54.49
2022-08-22T10:07:28.015Z,52.57
2022-08-22T10:08:28.014Z,52.49
2022-08-22T10:09:31.309Z,54.96
2022-08-22T10:10:28.016Z,52.27
2022-08-22T10:11:28.867Z,51.77
2022-08-22T10:12:31.470Z,52.59
2022-08-22T10:13:28.016Z,52.89
2022-08-22T10:14:28.019Z,52.09
2022-08-22T10:15:28.018Z,51.62
2022-08-22T10:16:28.021Z,52.29
2022-08-22T10:17:28.018Z,51.70
2022-08-22T10:18:28.024Z,51.89
2022-08-22T10:19:28.046Z,53.19
2022-08-22T10:20:28.025Z,52.27
2022-08-22T10:21:28.025Z,51.57
2022-08-22T10:22:29.983Z,49.85
2022-08-22T10:23:28.024Z,49.95
2022-08-22T10:24:28.029Z,50.03
2022-08-22T10:25:28.573Z,51.12
2022-08-22T10:26:28.023Z,50.60
2022-08-22T10:27:28.925Z,50.31
2022-08-22T10:28:28.509Z,50.18
2022-08-22T10:29:28.249Z,50.28
2022-08-22T10:30:28.030Z,49.71
2022-08-22T10:31:28.030Z,50.33
2022-08-22T10:32:28.031Z,50.75
2022-08-22T10:33:29.177Z,51.54
2022-08-22T10:34:28.033Z,51.05
2022-08-22T10:35:28.035Z,52.44
2022-08-22T10:36:28.038Z,50.15
2022-08-22T10:37:28.036Z,51.65
2022-08-22T10:38:28.039Z,50.27
2022-08-22T10:39:28.042Z,50.50
2022-08-22T10:40:28.096Z,51.00
2022-08-22T10:41:28.038Z,50.30
2022-08-22T10:42:28.617Z,50.68
2022-08-22T10:43:28.589Z,48.98
2022-08-22T10:44:28.044Z,49.48
2022-08-22T10:45:35.997Z,49.28
2022-08-22T10:46:28.045Z,48.28
2022-08-22T10:47:28.042Z,50.08
2022-08-22T10:48:28.045Z,49.38
2022-08-22T10:49:28.832Z,46.77
2022-08-22T10:50:31.016Z,48.26
2022-08-22T10:51:28.842Z,48.66
2022-08-22T10:52:28.049Z,49.66
2022-08-22T10:53:29.679Z,48.04
2022-08-22T10:54:28.054Z,50.15
2022-08-22T10:55:28.051Z,48.26
2022-08-22T10:56:28.054Z,48.26
2022-08-22T10:57:28.053Z,47.79
2022-08-22T10:58:28.051Z,47.99
2022-08-22T10:59:28.056Z,48.50
2022-08-22T11:00:28.058Z,49.10
2022-08-22T11:01:37.630Z,48.80
2022-08-22T11:02:28.058Z,49.80
2022-08-22T11:03:28.059Z,50.13
2022-08-22T11:04:28.488Z,50.00
2022-08-22T11:05:28.114Z,50.00
2022-08-22T11:06:28.057Z,49.90
2022-08-22T11:07:28.065Z,48.79
2022-08-22T11:08:28.068Z,50.08
2022-08-22T11:09:29.040Z,51.15
2022-08-22T11:10:28.066Z,50.05
2022-08-22T11:11:32.881Z,49.76
2022-08-22T11:12:28.215Z,48.64
2022-08-22T11:13:28.076Z,48.64
2022-08-22T11:14:28.068Z,48.71
2022-08-22T11:15:34.677Z,47.72
2022-08-22T11:16:28.069Z,50.20
2022-08-22T11:17:32.338Z,47.94
2022-08-22T11:18:28.069Z,49.53
2022-08-22T11:19:28.065Z,47.84
2022-08-22T11:20:28.069Z,47.84
2022-08-22T11:21:28.066Z,49.83
2022-08-22T11:22:28.079Z,48.54
2022-08-22T11:23:28.072Z,47.17
2022-08-22T11:24:28.086Z,48.44
2022-08-22T11:25:38.939Z,48.83
2022-08-22T11:26:33.586Z,48.14
2022-08-22T11:27:34.597Z,47.94
2022-08-22T11:28:28.730Z,49.18
2022-08-22T11:29:28.086Z,49.68
2022-08-22T11:30:28.079Z,49.70
2022-08-22T11:31:28.081Z,48.23
2022-08-22T11:32:28.084Z,49.70
2022-08-22T11:33:39.091Z,48.41
2022-08-22T11:34:28.089Z,48.71
2022-08-22T11:35:28.084Z,50.10
2022-08-22T11:36:31.138Z,48.98
2022-08-22T11:37:42.753Z,48.66
2022-08-22T11:38:32.606Z,48.76
2022-08-22T11:39:28.089Z,48.26
2022-08-22T11:40:28.161Z,48.24
2022-08-22T11:41:28.091Z,50.23
2022-08-22T11:42:29.622Z,49.13
2022-08-22T11:43:28.087Z,47.92
2022-08-22T11:44:28.090Z,48.52
2022-08-22T11:45:28.106Z,49.01
2022-08-22T11:46:28.100Z,47.62
2022-08-22T11:47:28.807Z,45.43
2022-08-22T11:48:28.093Z,45.53
2022-08-22T11:49:28.097Z,46.95
2022-08-22T11:50:28.095Z,47.14
2022-08-22T11:51:28.099Z,47.74
2022-08-22T11:52:28.097Z,47.25
2022-08-22T11:53:28.153Z,45.65
2022-08-22T11:54:30.926Z,46.37
2022-08-22T11:55:32.814Z,47.17
2022-08-22T11:56:28.103Z,46.79
2022-08-22T11:57:28.104Z,47.79
2022-08-22T11:58:29.044Z,48.08
2022-08-22T11:59:28.103Z,47.89
2022-08-22T12:00:28.105Z,48.16
2022-08-22T12:01:28.105Z,47.99
2022-08-22T12:02:28.176Z,48.19
2022-08-22T12:03:28.108Z,49.28
2022-08-22T12:04:28.107Z,49.18
2022-08-22T12:05:28.114Z,48.68
2022-08-22T12:06:28.116Z,48.26
2022-08-22T12:07:28.106Z,48.36
2022-08-22T12:08:28.108Z,49.46
2022-08-22T12:09:28.107Z,48.86
2022-08-22T12:10:28.113Z,49.16
2022-08-22T12:11:28.112Z,49.06
2022-08-22T12:12:28.138Z,49.26
2022-08-22T12:13:35.049Z,50.43
2022-08-22T12:14:28.127Z,50.43
2022-08-22T12:15:28.115Z,48.14
2022-08-22T12:16:28.116Z,49.06
2022-08-22T12:17:51.180Z,48.56
2022-08-22T12:18:28.120Z,48.98
2022-08-22T12:19:28.120Z,48.86
2022-08-22T12:20:28.116Z,48.76
2022-08-22T12:21:28.117Z,49.36
2022-08-22T12:22:28.835Z,49.53
2022-08-22T12:23:43.175Z,47.34
2022-08-22T12:24:28.150Z,49.26
2022-08-22T12:25:28.120Z,48.26
2022-08-22T12:26:28.124Z,50.05
2022-08-22T12:27:29.234Z,49.06
2022-08-22T12:28:28.129Z,47.86
2022-08-22T12:29:33.802Z,48.26
2022-08-22T12:30:28.127Z,48.96
2022-08-22T12:31:28.127Z,49.16
2022-08-22T12:32:28.127Z,49.04
2022-08-22T12:33:28.136Z,48.91
2022-08-22T12:34:28.132Z,46.95
2022-08-22T12:35:29.868Z,48.94
2022-08-22T12:36:28.130Z,49.13
2022-08-22T12:37:28.134Z,48.96
2022-08-22T12:38:29.843Z,48.76
2022-08-22T12:39:28.147Z,49.55
2022-08-22T12:40:28.174Z,49.36
2022-08-22T12:41:35.080Z,49.26
2022-08-22T12:42:28.196Z,48.88
2022-08-22T12:43:28.150Z,50.25
2022-08-22T12:44:28.138Z,49.66
2022-08-22T12:45:28.137Z,48.94
2022-08-22T12:46:28.284Z,48.14
2022-08-22T12:47:28.148Z,47.64
2022-08-22T12:48:28.138Z,47.84
2022-08-22T12:49:28.144Z,47.74
2022-08-22T12:50:28.143Z,47.37
2022-08-22T12:51:29.422Z,47.47
2022-08-22T12:52:28.181Z,48.44